createdAt,value
2023-02-11T00:00:16.132Z,97380.03
2023-02-11T00:01:28.889Z,97288.16
2023-02-11T00:02:32.030Z,97352.75
2023-02-11T00:03:33.864Z,97377.22
2023-02-11T00:04:35.640Z,97296.97
2023-02-11T00:05:37.501Z,97410.06
2023-02-11T00:06:39.347Z,97381.31
2023-02-11T00:07:40.976Z,97232.53
2023-02-11T00:08:42.995Z,97424.91
2023-02-11T00:09:44.730Z,97207.75
2023-02-11T00:10:46.370Z,97191.19
2023-02-11T00:11:48.091Z,97386.13
2023-02-11T00:12:49.806Z,97337.59
2023-02-11T00:13:51.877Z,97369.03
2023-02-11T00:14:53.614Z,97379.41
2023-02-11T00:15:55.573Z,97292.91
2023-02-11T00:16:57.360Z,97375.28
2023-02-11T00:17:59.022Z,97376.66
2023-02-11T00:19:01.951Z,97363.72
2023-02-11T00:20:05.991Z,97305.88
2023-02-11T00:21:15.036Z,97357.34
2023-02-11T00:22:16.829Z,97375.31
2023-02-11T00:23:19.192Z,97380.31
2023-02-11T00:24:20.936Z,97379.63
2023-02-11T00:25:22.668Z,97336.72
2023-02-11T00:26:27.959Z,97389.19
2023-02-11T00:27:29.665Z,97256.94
2023-02-11T00:28:31.426Z,97390.91
2023-02-11T00:29:33.201Z,97388.81
2023-02-11T00:30:35.146Z,97392.22
2023-02-11T00:31:37.071Z,97392.63
2023-02-11T00:32:38.862Z,97415.34
2023-02-11T00:33:40.641Z,97317.34
2023-02-11T00:34:42.419Z,97377.56
2023-02-11T00:35:44.137Z,97349.53
2023-02-11T00:36:45.772Z,97258.22
2023-02-11T00:37:47.450Z,97328.84
2023-02-11T00:38:51.089Z,97311.53
2023-02-11T00:39:52.887Z,97381.84
2023-02-11T00:40:54.762Z,97326.78
2023-02-11T00:41:57.212Z,97296.44
2023-02-11T00:42:58.920Z,97336.25
2023-02-11T00:44:01.751Z,97357.78
2023-02-11T00:45:04.093Z,97262.53
2023-02-11T00:46:06.930Z,97350.38
2023-02-11T00:47:08.711Z,97346.03
2023-02-11T00:48:10.403Z,97206.53
2023-02-11T00:49:12.170Z,97353.81
2023-02-11T00:50:14.023Z,97365.63
2023-02-11T00:51:15.792Z,97344.91
2023-02-11T00:52:17.511Z,97353.00
2023-02-11T00:53:19.270Z,97367.34
2023-02-11T00:54:20.953Z,97171.84
2023-02-11T00:55:22.709Z,97362.09
2023-02-11T00:56:24.689Z,97342.66
2023-02-11T00:57:26.394Z,97365.63
2023-02-11T00:58:28.466Z,97383.94
2023-02-11T00:59:30.239Z,97362.44
2023-02-11T01:00:32.024Z,97281.44
2023-02-11T01:01:33.884Z,97358.03
2023-02-11T01:02:35.604Z,97346.63
2023-02-11T01:03:37.228Z,97310.22
2023-02-11T01:04:38.961Z,97180.59
2023-02-11T01:05:40.807Z,97220.94
2023-02-11T01:06:42.543Z,97212.84
2023-02-11T01:07:44.648Z,97336.25
2023-02-11T01:08:46.372Z,97374.75
2023-02-11T01:09:48.054Z,97335.22
2023-02-11T01:11:06.550Z,97167.94
2023-02-11T01:12:08.181Z,97332.13
2023-02-11T01:13:10.340Z,97190.63
2023-02-11T01:14:12.105Z,97281.03
2023-02-11T01:15:17.988Z,97364.16
2023-02-11T01:16:20.646Z,97242.78
2023-02-11T01:17:22.374Z,97335.38
2023-02-11T01:18:24.542Z,97328.59
2023-02-11T01:19:26.263Z,97317.88
2023-02-11T01:20:29.320Z,97362.94
2023-02-11T01:21:31.063Z,97187.47
2023-02-11T01:22:32.994Z,97189.63
2023-02-11T01:23:34.699Z,97363.84
2023-02-11T01:24:36.432Z,97364.41
2023-02-11T01:25:38.158Z,97400.28
2023-02-11T01:26:39.942Z,97305.56
2023-02-11T01:27:41.744Z,97230.16
2023-02-11T01:28:43.627Z,97351.94
2023-02-11T01:29:45.263Z,97360.81
2023-02-11T01:30:47.041Z,97308.09
2023-02-11T01:31:48.901Z,97199.03
2023-02-11T01:32:50.758Z,97325.66
2023-02-11T01:33:53.185Z,97165.53
2023-02-11T01:34:55.122Z,97351.94
2023-02-11T01:36:01.478Z,97239.91
2023-02-11T01:37:03.156Z,97343.41
2023-02-11T01:38:04.875Z,97347.88
2023-02-11T01:39:06.804Z,97359.47
2023-02-11T01:40:14.889Z,97256.81
2023-02-11T01:41:16.631Z,97313.91
2023-02-11T01:42:21.252Z,97175.50
2023-02-11T01:43:24.617Z,97341.94
2023-02-11T01:44:31.786Z,97172.59
2023-02-11T01:45:45.660Z,97376.09
2023-02-11T01:46:47.376Z,97347.53
2023-02-11T01:47:49.137Z,97355.56
2023-02-11T01:48:55.283Z,97339.47
2023-02-11T01:50:02.138Z,97153.41
2023-02-11T01:51:18.520Z,97295.03
2023-02-11T01:52:23.448Z,97337.31
2023-02-11T01:53:25.955Z,97340.16
2023-02-11T01:54:32.932Z,97228.00
2023-02-11T01:55:34.644Z,97347.47
2023-02-11T01:56:42.385Z,97345.16
2023-02-11T01:57:47.559Z,97347.72
2023-02-11T01:58:51.741Z,97362.22
2023-02-11T02:00:14.374Z,97395.88
2023-02-11T02:01:23.123Z,97361.97
2023-02-11T02:03:03.250Z,97364.50
2023-02-11T02:04:06.926Z,97189.81
2023-02-11T02:05:17.776Z,97338.09
2023-02-11T02:06:34.537Z,97347.34
2023-02-11T02:08:10.892Z,97310.78
2023-02-11T02:09:37.884Z,97347.75
2023-02-11T02:10:43.699Z,97338.31
2023-02-11T02:11:45.418Z,97329.78
2023-02-11T02:13:17.782Z,97353.84
2023-02-11T02:14:19.592Z,97363.25
2023-02-11T02:15:34.484Z,97193.06
2023-02-11T02:16:37.646Z,97352.97
2023-02-11T02:17:55.664Z,97359.69
2023-02-11T02:19:18.825Z,97376.66
2023-02-11T02:20:52.858Z,97350.34
2023-02-11T02:22:12.638Z,97354.41
2023-02-11T02:23:17.227Z,97356.47
2023-02-11T02:24:47.482Z,97378.63
2023-02-11T02:26:34.359Z,97195.19
2023-02-11T02:27:35.920Z,97351.66
2023-02-11T02:29:21.020Z,97164.22
2023-02-11T02:30:50.375Z,97377.44
2023-02-11T02:32:22.781Z,97344.97
2023-02-11T02:34:06.589Z,97327.09
2023-02-11T02:35:26.800Z,97204.44
2023-02-11T02:36:45.430Z,97346.50
2023-02-11T02:38:04.905Z,97362.34
2023-02-11T02:39:12.046Z,97328.25
2023-02-11T02:40:23.583Z,97306.47
2023-02-11T02:41:34.214Z,97343.25
2023-02-11T02:42:36.854Z,97341.75
2023-02-11T02:43:46.036Z,97304.06
2023-02-11T02:44:52.328Z,97236.94
2023-02-11T02:45:54.075Z,97348.88
2023-02-11T02:46:55.802Z,97258.69
2023-02-11T02:47:58.310Z,97343.78
2023-02-11T02:49:01.140Z,97359.94
2023-02-11T02:50:05.026Z,97353.59
2023-02-11T02:51:14.097Z,97212.53
2023-02-11T02:52:33.818Z,97350.50
2023-02-11T02:53:53.190Z,97294.84
2023-02-11T02:55:13.176Z,97351.59
2023-02-11T02:56:25.940Z,97335.25
2023-02-11T02:58:07.737Z,97353.34
2023-02-11T02:59:15.105Z,97354.78
2023-02-11T03:00:47.731Z,97352.72
2023-02-11T03:02:14.089Z,97371.22
2023-02-11T03:03:36.794Z,97351.63
2023-02-11T03:05:00.623Z,97373.94
2023-02-11T03:06:15.674Z,97217.75
2023-02-11T03:07:38.068Z,97352.53
2023-02-11T03:09:00.001Z,97376.41
2023-02-11T03:10:11.553Z,97239.50
2023-02-11T03:11:17.272Z,97341.94
2023-02-11T03:12:20.549Z,97352.72
2023-02-11T03:13:28.169Z,97093.28
2023-02-11T03:14:32.319Z,97195.38
2023-02-11T03:15:39.340Z,97274.59
2023-02-11T03:16:43.533Z,97268.81
2023-02-11T03:17:49.592Z,97351.63
2023-02-11T03:19:03.236Z,97355.09
2023-02-11T03:20:07.095Z,97328.81
2023-02-11T03:21:10.422Z,97351.16
2023-02-11T03:22:20.079Z,97356.28
2023-02-11T03:23:42.011Z,97331.13
2023-02-11T03:24:45.313Z,97334.25
2023-02-11T03:25:58.738Z,97339.72
2023-02-11T03:27:18.144Z,97355.56
2023-02-11T03:28:33.505Z,97299.34
2023-02-11T03:29:43.934Z,97385.06
2023-02-11T03:31:00.401Z,97211.31
2023-02-11T03:32:09.260Z,97346.81
2023-02-11T03:33:26.648Z,97362.31
2023-02-11T03:34:36.571Z,97372.41
2023-02-11T03:36:04.510Z,97367.91
2023-02-11T03:37:14.236Z,97358.84
2023-02-11T03:38:24.440Z,97327.91
2023-02-11T03:39:33.374Z,97349.72
2023-02-11T03:40:41.188Z,97315.69
2023-02-11T03:41:43.917Z,97330.66
2023-02-11T03:42:59.986Z,97319.59
2023-02-11T03:44:02.865Z,97158.88
2023-02-11T03:45:14.347Z,97311.44
2023-02-11T03:46:19.584Z,97331.63
2023-02-11T03:47:26.685Z,97304.91
2023-02-11T03:48:33.388Z,97312.56
2023-02-11T03:49:38.328Z,97327.56
2023-02-11T03:50:41.943Z,97345.47
2023-02-11T03:51:44.163Z,97342.81
2023-02-11T03:52:47.161Z,97388.06
2023-02-11T03:53:52.931Z,97370.16
2023-02-11T03:54:57.957Z,97356.56
2023-02-11T03:56:05.307Z,97367.78
2023-02-11T03:57:07.029Z,97343.03
2023-02-11T03:58:09.341Z,97178.66
2023-02-11T03:59:11.035Z,97360.25
2023-02-11T04:00:14.048Z,97339.59
2023-02-11T04:01:16.225Z,97225.56
2023-02-11T04:02:18.242Z,97297.75
2023-02-11T04:03:19.950Z,97378.53
2023-02-11T04:04:21.826Z,97289.72
2023-02-11T04:05:23.588Z,97337.19
2023-02-11T04:06:25.368Z,97341.47
2023-02-11T04:07:27.546Z,97352.69
2023-02-11T04:08:29.211Z,97250.28
2023-02-11T04:09:30.910Z,97194.59
2023-02-11T04:10:32.953Z,97357.34
2023-02-11T04:11:34.632Z,97342.53
2023-02-11T04:12:36.314Z,97341.00
2023-02-11T04:13:38.009Z,97355.66
2023-02-11T04:14:39.726Z,97351.81
2023-02-11T04:15:41.354Z,97292.28
2023-02-11T04:16:43.014Z,97340.63
2023-02-11T04:17:44.848Z,97359.84
2023-02-11T04:18:46.545Z,97188.72
2023-02-11T04:19:48.312Z,97205.13
2023-02-11T04:20:51.113Z,97209.91
2023-02-11T04:21:52.883Z,97361.06
2023-02-11T04:22:54.616Z,97283.53
2023-02-11T04:23:56.267Z,97330.69
2023-02-11T04:24:58.080Z,97331.28
2023-02-11T04:25:59.819Z,97169.88
2023-02-11T04:27:01.931Z,97339.41
2023-02-11T04:28:03.737Z,97317.94
2023-02-11T04:29:05.486Z,97341.25
2023-02-11T04:30:09.674Z,97324.00
2023-02-11T04:31:11.362Z,97326.41
2023-02-11T04:32:13.409Z,97343.44
2023-02-11T04:33:15.109Z,97301.94
2023-02-11T04:34:16.946Z,97366.22
2023-02-11T04:35:18.707Z,97197.03
2023-02-11T04:36:20.375Z,97344.41
2023-02-11T04:37:22.020Z,97250.22
2023-02-11T04:38:23.735Z,97328.06
2023-02-11T04:39:25.421Z,97335.44
2023-02-11T04:40:27.184Z,97317.38
2023-02-11T04:41:28.845Z,97339.09
2023-02-11T04:42:30.993Z,97350.78
2023-02-11T04:43:32.718Z,97369.19
2023-02-11T04:44:34.415Z,97331.41
2023-02-11T04:45:36.183Z,97305.69
2023-02-11T04:46:37.960Z,97372.94
2023-02-11T04:47:39.632Z,97341.53
2023-02-11T04:48:41.250Z,97352.34
2023-02-11T04:49:42.969Z,97346.00
2023-02-11T04:50:44.723Z,97324.38
2023-02-11T04:51:48.998Z,97334.81
2023-02-11T04:52:51.135Z,97325.94
2023-02-11T04:53:52.851Z,97333.41
2023-02-11T04:54:54.492Z,97305.53
2023-02-11T04:55:56.222Z,97310.66
2023-02-11T04:56:57.932Z,97183.13
2023-02-11T04:57:59.616Z,97305.06
2023-02-11T04:59:01.318Z,97305.06
2023-02-11T05:00:03.527Z,97148.16
2023-02-11T05:01:13.650Z,97303.66
2023-02-11T05:02:15.310Z,97330.16
2023-02-11T05:03:17.037Z,97317.03
2023-02-11T05:04:19.142Z,97335.28
2023-02-11T05:05:20.898Z,97336.53
2023-02-11T05:06:22.769Z,97298.69
2023-02-11T05:07:24.517Z,97307.66
2023-02-11T05:08:26.162Z,97304.59
2023-02-11T05:09:27.846Z,97160.75
2023-02-11T05:10:29.524Z,97319.44
2023-02-11T05:11:31.398Z,97261.63
2023-02-11T05:12:33.074Z,97344.00
2023-02-11T05:13:34.752Z,97328.88
2023-02-11T05:14:36.421Z,97315.13
2023-02-11T05:15:38.093Z,97195.03
2023-02-11T05:16:39.838Z,97275.84
2023-02-11T05:17:41.593Z,97266.06
2023-02-11T05:18:44.434Z,97205.53
2023-02-11T05:19:46.096Z,97322.81
2023-02-11T05:20:47.943Z,97353.63
2023-02-11T05:22:01.719Z,97323.13
2023-02-11T05:23:04.616Z,97217.09
2023-02-11T05:24:06.909Z,97284.81
2023-02-11T05:25:08.747Z,97185.66
2023-02-11T05:26:11.048Z,97160.28
2023-02-11T05:27:12.746Z,97289.28
2023-02-11T05:28:14.511Z,97322.34
2023-02-11T05:29:16.255Z,97325.16
2023-02-11T05:30:17.918Z,97297.56
2023-02-11T05:31:19.723Z,97214.06
2023-02-11T05:32:21.388Z,97337.19
2023-02-11T05:33:23.213Z,97330.47
2023-02-11T05:34:24.957Z,97290.19
2023-02-11T05:35:26.615Z,97223.63
2023-02-11T05:36:28.282Z,97332.72
2023-02-11T05:37:30.062Z,97248.59
2023-02-11T05:38:31.855Z,97317.75
2023-02-11T05:39:33.551Z,97308.59
2023-02-11T05:40:35.250Z,97329.13
2023-02-11T05:41:36.959Z,97338.97
2023-02-11T05:42:38.651Z,97278.97
2023-02-11T05:43:40.320Z,97308.56
2023-02-11T05:44:42.018Z,97336.03
2023-02-11T05:45:43.641Z,97340.63
2023-02-11T05:46:45.406Z,97159.41
2023-02-11T05:47:47.170Z,97341.81
2023-02-11T05:48:48.848Z,97326.94
2023-02-11T05:49:51.301Z,97183.34
2023-02-11T05:50:53.107Z,97327.91
2023-02-11T05:51:54.774Z,97362.94
2023-02-11T05:52:56.464Z,97321.13
2023-02-11T05:53:58.360Z,97244.91
2023-02-11T05:55:00.016Z,97319.41
2023-02-11T05:56:02.096Z,97215.47
2023-02-11T05:57:04.161Z,97235.75
2023-02-11T05:58:07.327Z,97326.03
2023-02-11T05:59:09.066Z,97314.56
2023-02-11T06:00:11.590Z,97351.13
2023-02-11T06:01:13.291Z,97336.88
2023-02-11T06:02:15.677Z,97342.13
2023-02-11T06:03:17.435Z,97346.00
2023-02-11T06:04:19.145Z,97338.56
2023-02-11T06:05:20.817Z,97335.75
2023-02-11T06:06:22.574Z,97384.63
2023-02-11T06:07:24.204Z,97348.28
2023-02-11T06:08:25.951Z,97305.19
2023-02-11T06:09:27.854Z,97352.72
2023-02-11T06:10:29.559Z,97190.59
2023-02-11T06:11:31.401Z,97332.81
2023-02-11T06:12:33.087Z,97352.22
2023-02-11T06:13:35.817Z,97185.63
2023-02-11T06:14:37.584Z,97346.50
2023-02-11T06:15:39.830Z,97321.81
2023-02-11T06:16:41.532Z,97364.53
2023-02-11T06:17:43.173Z,97350.97
2023-02-11T06:18:44.923Z,97349.78
2023-02-11T06:19:46.618Z,97356.19
2023-02-11T06:20:48.311Z,97327.66
2023-02-11T06:21:49.981Z,97308.38
2023-02-11T06:22:51.618Z,97181.13
2023-02-11T06:23:53.324Z,97336.66
2023-02-11T06:25:01.571Z,97345.66
2023-02-11T06:26:09.057Z,97197.47
2023-02-11T06:27:10.748Z,97362.16
2023-02-11T06:28:12.696Z,97174.66
2023-02-11T06:29:14.554Z,97230.69
2023-02-11T06:30:16.228Z,97300.34
2023-02-11T06:31:18.166Z,97338.81
2023-02-11T06:32:39.550Z,97117.25
2023-02-11T06:33:42.304Z,97356.44
2023-02-11T06:34:44.019Z,97345.41
2023-02-11T06:35:45.697Z,97244.13
2023-02-11T06:36:47.318Z,97174.00
2023-02-11T06:37:49.014Z,97335.78
2023-02-11T06:38:51.238Z,97285.06
2023-02-11T06:39:52.967Z,97339.00
2023-02-11T06:40:54.877Z,97340.47
2023-02-11T06:41:56.587Z,97176.03
2023-02-11T06:42:58.220Z,97266.53
2023-02-11T06:43:59.878Z,97329.78
2023-02-11T06:45:01.586Z,97352.66
2023-02-11T06:46:03.347Z,97363.94
2023-02-11T06:47:05.196Z,97330.34
2023-02-11T06:48:06.886Z,97332.84
2023-02-11T06:49:08.637Z,97356.84
2023-02-11T06:50:13.861Z,97328.94
2023-02-11T06:51:15.638Z,97305.53
2023-02-11T06:52:17.585Z,97363.97
2023-02-11T06:53:19.274Z,97206.44
2023-02-11T06:54:21.026Z,97332.72
2023-02-11T06:55:22.801Z,97297.53
2023-02-11T06:56:25.005Z,97402.75
2023-02-11T06:57:26.659Z,97304.69
2023-02-11T06:58:28.358Z,97334.66
2023-02-11T06:59:30.014Z,97246.44
2023-02-11T07:00:31.805Z,97216.09
2023-02-11T07:01:33.590Z,97336.66
2023-02-11T07:02:36.330Z,97346.72
2023-02-11T07:03:40.987Z,97352.41
2023-02-11T07:04:42.698Z,97325.63
2023-02-11T07:05:44.450Z,97241.09
2023-02-11T07:06:46.178Z,97350.38
2023-02-11T07:07:47.829Z,97208.06
2023-02-11T07:08:49.760Z,97286.81
2023-02-11T07:09:51.457Z,97321.56
2023-02-11T07:10:53.210Z,97320.75
2023-02-11T07:11:54.925Z,97219.72
2023-02-11T07:12:58.704Z,97303.53
2023-02-11T07:14:03.562Z,97308.50
2023-02-11T07:15:05.911Z,97335.88
2023-02-11T07:16:09.480Z,97308.56
2023-02-11T07:17:11.192Z,97191.56
2023-02-11T07:18:14.693Z,97365.59
2023-02-11T07:19:16.563Z,97346.88
2023-02-11T07:20:18.339Z,97341.56
2023-02-11T07:21:22.362Z,97312.56
2023-02-11T07:22:24.139Z,97319.56
2023-02-11T07:23:25.834Z,97311.13
2023-02-11T07:24:27.496Z,97335.69
2023-02-11T07:25:29.118Z,97313.63
2023-02-11T07:26:30.747Z,97289.09
2023-02-11T07:27:32.515Z,97289.56
2023-02-11T07:28:35.795Z,97330.78
2023-02-11T07:29:37.542Z,97239.28
2023-02-11T07:30:39.210Z,97335.38
2023-02-11T07:31:40.992Z,97339.72
2023-02-11T07:32:42.824Z,97326.72
2023-02-11T07:33:44.792Z,97169.41
2023-02-11T07:34:46.552Z,97337.81
2023-02-11T07:35:48.404Z,97314.22
2023-02-11T07:36:50.283Z,97320.00
2023-02-11T07:37:51.995Z,97315.75
2023-02-11T07:38:53.850Z,97172.75
2023-02-11T07:39:55.530Z,97288.91
2023-02-11T07:41:00.849Z,97275.38
2023-02-11T07:42:04.002Z,97301.53
2023-02-11T07:43:05.737Z,97328.03
2023-02-11T07:44:07.472Z,97294.34
2023-02-11T07:45:09.510Z,97256.75
2023-02-11T07:46:14.614Z,97264.06
2023-02-11T07:47:16.378Z,97269.53
2023-02-11T07:48:18.067Z,97317.63
2023-02-11T07:49:19.730Z,97327.72
2023-02-11T07:50:21.410Z,97290.38
2023-02-11T07:51:28.184Z,97320.81
2023-02-11T07:52:30.920Z,97315.53
2023-02-11T07:53:32.629Z,97314.41
2023-02-11T07:54:34.324Z,97170.16
2023-02-11T07:55:35.996Z,97176.50
2023-02-11T07:56:37.699Z,97311.47
2023-02-11T07:57:39.450Z,97264.91
2023-02-11T07:58:41.517Z,97312.19
2023-02-11T07:59:43.153Z,97333.50
2023-02-11T08:00:44.855Z,97297.47
2023-02-11T08:01:46.623Z,97292.91
2023-02-11T08:02:48.294Z,97125.69
2023-02-11T08:03:50.041Z,97292.22
2023-02-11T08:04:51.728Z,97297.09
2023-02-11T08:05:53.557Z,97292.72
2023-02-11T08:06:57.831Z,97258.94
2023-02-11T08:08:00.694Z,97267.66
2023-02-11T08:09:07.774Z,97327.81
2023-02-11T08:10:09.704Z,97257.19
2023-02-11T08:11:28.965Z,97176.13
2023-02-11T08:12:30.766Z,97295.06
2023-02-11T08:13:32.419Z,97327.00
2023-02-11T08:14:34.095Z,97237.47
2023-02-11T08:15:35.717Z,97288.78
2023-02-11T08:16:38.030Z,97152.09
2023-02-11T08:17:39.750Z,97179.72
2023-02-11T08:18:41.472Z,97297.59
2023-02-11T08:19:43.328Z,97290.06
2023-02-11T08:20:45.036Z,97279.22
2023-02-11T08:21:46.742Z,97288.00
2023-02-11T08:22:48.450Z,97293.72
2023-02-11T08:23:50.444Z,97315.47
2023-02-11T08:24:52.515Z,97313.16
2023-02-11T08:25:54.336Z,97160.75
2023-02-11T08:26:56.061Z,97279.78
2023-02-11T08:27:58.304Z,97271.81
2023-02-11T08:29:01.547Z,97168.84
2023-02-11T08:30:03.658Z,97205.50
2023-02-11T08:31:07.281Z,97256.06
2023-02-11T08:32:09.180Z,97286.41
2023-02-11T08:33:10.940Z,97203.78
2023-02-11T08:34:13.634Z,97225.94
2023-02-11T08:35:15.428Z,97276.00
2023-02-11T08:36:25.443Z,97292.31
2023-02-11T08:37:27.183Z,97233.81
2023-02-11T08:38:28.927Z,97281.16
2023-02-11T08:39:31.521Z,97275.34
2023-02-11T08:40:33.232Z,97296.72
2023-02-11T08:41:35.766Z,97299.13
2023-02-11T08:42:37.435Z,97302.31
2023-02-11T08:43:39.162Z,97285.69
2023-02-11T08:44:41.302Z,97233.88
2023-02-11T08:45:43.052Z,97301.81
2023-02-11T08:46:44.746Z,97275.81
2023-02-11T08:47:46.415Z,97271.91
2023-02-11T08:48:48.307Z,97282.91
2023-02-11T08:49:50.145Z,97195.09
2023-02-11T08:50:52.114Z,97267.34
2023-02-11T08:51:53.997Z,97285.91
2023-02-11T08:52:55.722Z,97312.16
2023-02-11T08:53:58.082Z,97248.47
2023-02-11T08:54:59.888Z,97288.13
2023-02-11T08:56:01.780Z,97286.56
2023-02-11T08:57:04.142Z,97300.03
2023-02-11T08:58:05.905Z,97288.94
2023-02-11T08:59:08.238Z,97133.59
2023-02-11T09:00:10.651Z,97277.06
2023-02-11T09:01:23.099Z,97127.72
2023-02-11T09:02:24.898Z,97278.59
2023-02-11T09:03:26.635Z,97164.75
2023-02-11T09:04:28.402Z,97238.63
2023-02-11T09:05:30.189Z,97239.84
2023-02-11T09:06:32.120Z,97275.41
2023-02-11T09:07:33.828Z,97275.34
2023-02-11T09:08:37.490Z,97254.25
2023-02-11T09:09:39.193Z,97234.22
2023-02-11T09:10:40.940Z,97254.16
2023-02-11T09:11:44.411Z,97153.38
2023-02-11T09:12:46.219Z,97275.28
2023-02-11T09:13:48.202Z,97290.31
2023-02-11T09:14:49.899Z,97147.09
2023-02-11T09:15:51.639Z,97257.63
2023-02-11T09:16:54.044Z,97224.81
2023-02-11T09:17:56.459Z,97137.41
2023-02-11T09:18:59.442Z,97103.81
2023-02-11T09:20:01.250Z,97273.88
2023-02-11T09:21:09.387Z,97275.53
2023-02-11T09:22:11.184Z,97245.66
2023-02-11T09:23:12.868Z,97285.44
2023-02-11T09:24:14.634Z,97217.38
2023-02-11T09:25:16.444Z,97218.72
2023-02-11T09:26:44.360Z,97255.47
2023-02-11T09:27:46.436Z,97243.28
2023-02-11T09:28:48.626Z,97267.94
2023-02-11T09:29:50.382Z,97256.81
2023-02-11T09:30:52.304Z,97257.56
2023-02-11T09:31:54.412Z,97222.94
2023-02-11T09:32:56.215Z,97244.84
2023-02-11T09:34:01.177Z,97225.34
2023-02-11T09:35:02.912Z,97259.66
2023-02-11T09:36:06.212Z,97162.22
2023-02-11T09:37:07.881Z,97258.97
2023-02-11T09:38:09.669Z,97231.38
2023-02-11T09:39:20.342Z,97210.31
2023-02-11T09:40:22.887Z,97224.56
2023-02-11T09:41:24.529Z,97140.25
2023-02-11T09:42:37.923Z,97120.34
2023-02-11T09:43:46.648Z,97214.38
2023-02-11T09:44:48.896Z,97180.59
2023-02-11T09:45:53.844Z,97133.50
2023-02-11T09:47:01.504Z,97189.81
2023-02-11T09:48:33.730Z,97238.75
2023-02-11T09:49:42.859Z,97236.16
2023-02-11T09:50:55.709Z,97227.63
2023-02-11T09:52:12.531Z,97159.94
2023-02-11T09:53:20.216Z,97099.53
2023-02-11T09:54:49.020Z,97214.16
2023-02-11T09:56:02.197Z,97204.00
2023-02-11T09:57:04.764Z,97211.31
2023-02-11T09:58:15.258Z,97217.56
2023-02-11T09:59:17.662Z,97218.13
2023-02-11T10:00:28.522Z,97213.00
2023-02-11T10:01:40.220Z,97209.81
2023-02-11T10:02:50.636Z,97227.25
2023-02-11T10:04:20.453Z,97223.44
2023-02-11T10:05:24.798Z,97207.38
2023-02-11T10:06:29.004Z,97209.72
2023-02-11T10:08:05.357Z,97203.88
2023-02-11T10:09:26.182Z,97207.88
2023-02-11T10:10:45.320Z,97187.63
2023-02-11T10:11:58.195Z,97159.81
2023-02-11T10:13:12.073Z,97177.94
2023-02-11T10:14:55.085Z,97175.78
2023-02-11T10:16:28.332Z,97185.50
2023-02-11T10:17:45.654Z,97157.41
2023-02-11T10:18:50.094Z,97168.06
2023-02-11T10:20:20.965Z,97163.16
2023-02-11T10:21:45.173Z,97154.81
2023-02-11T10:22:54.762Z,97027.19
2023-02-11T10:24:00.575Z,97154.91
2023-02-11T10:25:32.416Z,97153.50
2023-02-11T10:26:37.008Z,97011.34
2023-02-11T10:27:38.718Z,97068.94
2023-02-11T10:28:44.290Z,97144.09
2023-02-11T10:30:01.279Z,97130.13
2023-02-11T10:31:08.553Z,97146.72
2023-02-11T10:32:47.864Z,97119.00
2023-02-11T10:34:11.623Z,97050.50
2023-02-11T10:35:17.318Z,97114.38
2023-02-11T10:36:21.143Z,96997.31
2023-02-11T10:37:22.913Z,97068.84
2023-02-11T10:38:25.215Z,97015.38
2023-02-11T10:39:28.188Z,97115.81
2023-02-11T10:40:31.623Z,97073.31
2023-02-11T10:41:38.257Z,97123.59
2023-02-11T10:42:42.275Z,97077.75
2023-02-11T10:43:43.959Z,97084.88
2023-02-11T10:45:04.718Z,97060.72
2023-02-11T10:46:06.599Z,97104.78
2023-02-11T10:47:22.538Z,97113.41
2023-02-11T10:48:43.478Z,96963.19
2023-02-11T10:49:47.006Z,97079.28
2023-02-11T10:50:48.936Z,97092.38
2023-02-11T10:52:10.406Z,97022.13
2023-02-11T10:53:18.344Z,97103.25
2023-02-11T10:54:20.012Z,97050.56
2023-02-11T10:55:26.714Z,97069.78
2023-02-11T10:56:29.165Z,97078.47
2023-02-11T10:57:35.095Z,96971.00
2023-02-11T10:58:44.091Z,97064.97
2023-02-11T10:59:45.925Z,97059.69
2023-02-11T11:00:53.213Z,96940.78
2023-02-11T11:01:59.763Z,96992.13
2023-02-11T11:03:02.693Z,96948.88
2023-02-11T11:04:04.593Z,97037.66
2023-02-11T11:05:19.948Z,97057.66
2023-02-11T11:06:35.354Z,97052.50
2023-02-11T11:07:37.422Z,97043.00
2023-02-11T11:08:41.688Z,97035.22
2023-02-11T11:09:51.651Z,97042.91
2023-02-11T11:11:08.377Z,97046.47
2023-02-11T11:12:39.670Z,97044.53
2023-02-11T11:13:54.151Z,97046.97
2023-02-11T11:14:58.755Z,97031.63
2023-02-11T11:16:12.640Z,97037.88
2023-02-11T11:17:19.245Z,97034.53
2023-02-11T11:18:23.262Z,97007.44
2023-02-11T11:19:26.269Z,97043.72
2023-02-11T11:20:30.795Z,96921.06
2023-02-11T11:21:41.522Z,97035.09
2023-02-11T11:22:44.079Z,97047.19
2023-02-11T11:23:55.728Z,96935.97
2023-02-11T11:24:57.533Z,97035.19
2023-02-11T11:26:06.327Z,97052.16
2023-02-11T11:27:17.520Z,97035.63
2023-02-11T11:28:24.128Z,97013.09
2023-02-11T11:29:39.627Z,97019.91
2023-02-11T11:30:43.338Z,97026.31
2023-02-11T11:31:55.824Z,97031.81
2023-02-11T11:32:58.468Z,97024.47
2023-02-11T11:34:13.203Z,97018.31
2023-02-11T11:35:28.298Z,96991.44
2023-02-11T11:36:39.542Z,96997.41
2023-02-11T11:37:42.100Z,97030.22
2023-02-11T11:38:49.260Z,97007.38
2023-02-11T11:40:07.976Z,97019.75
2023-02-11T11:41:32.737Z,97028.22
2023-02-11T11:42:37.529Z,97023.75
2023-02-11T11:43:39.337Z,97013.59
2023-02-11T11:44:41.126Z,97023.97
2023-02-11T11:46:00.160Z,97014.03
2023-02-11T11:47:25.367Z,97004.94
2023-02-11T11:48:42.431Z,97013.09
2023-02-11T11:50:05.998Z,96997.19
2023-02-11T11:51:12.127Z,96988.66
2023-02-11T11:52:32.038Z,96954.66
2023-02-11T11:53:36.447Z,97003.50
2023-02-11T11:54:40.275Z,97003.38
2023-02-11T11:56:16.356Z,96993.13
2023-02-11T11:57:22.268Z,97002.66
2023-02-11T11:58:24.222Z,96999.91
2023-02-11T11:59:25.926Z,97011.47
2023-02-11T12:00:48.159Z,96877.53
2023-02-11T12:02:27.157Z,96988.81
2023-02-11T12:03:45.199Z,96978.44
2023-02-11T12:05:22.647Z,96992.94
2023-02-11T12:06:26.914Z,97002.16
2023-02-11T12:07:46.494Z,97001.16
2023-02-11T12:09:06.535Z,96986.38
2023-02-11T12:10:35.627Z,96979.91
2023-02-11T12:11:49.560Z,96991.50
2023-02-11T12:13:26.385Z,96974.69
2023-02-11T12:14:59.935Z,96973.72
2023-02-11T12:16:09.661Z,96961.69
2023-02-11T12:17:31.688Z,96950.47
2023-02-11T12:18:49.266Z,96960.53
2023-02-11T12:19:55.336Z,96955.84
2023-02-11T12:20:59.986Z,96960.75
2023-02-11T12:22:20.111Z,96923.31
2023-02-11T12:23:33.889Z,96943.00
2023-02-11T12:24:46.031Z,96956.25
2023-02-11T12:25:54.362Z,96956.34
2023-02-11T12:27:33.144Z,96943.00
2023-02-11T12:29:04.698Z,96935.63
2023-02-11T12:30:26.996Z,96938.03
2023-02-11T12:31:59.806Z,96942.53
2023-02-11T12:33:16.169Z,96939.25
2023-02-11T12:34:38.346Z,96930.19
2023-02-11T12:36:14.965Z,96962.94
2023-02-11T12:37:27.152Z,96916.88
2023-02-11T12:38:47.658Z,96931.09
2023-02-11T12:40:13.039Z,96931.09
2023-02-11T12:41:37.885Z,96925.81
2023-02-11T12:43:22.296Z,96875.16
2023-02-11T12:44:32.939Z,96938.63
2023-02-11T12:46:11.256Z,96924.03
2023-02-11T12:47:18.578Z,96925.50
2023-02-11T12:48:44.709Z,96947.25
2023-02-11T12:49:58.768Z,96919.00
2023-02-11T12:51:00.894Z,96935.75
2023-02-11T12:52:02.544Z,96780.81
2023-02-11T12:53:15.996Z,96920.78
2023-02-11T12:54:48.786Z,96944.47
2023-02-11T12:55:57.904Z,96857.00
2023-02-11T12:57:17.730Z,96902.69
2023-02-11T12:58:29.697Z,96899.00
2023-02-11T12:59:58.849Z,96913.78
2023-02-11T13:01:29.811Z,96913.31
2023-02-11T13:02:59.957Z,96900.44
2023-02-11T13:04:18.038Z,96913.38